This is the latest recevied weather packets stored in our database for station/object AA4XD. If no packets are shown the sender has not sent any weather packets the latest 10 day(s).
| Time | Temp. | Humidity | Pressure | Rain* | Wind** | Luminosity | Snow |
|---|---|---|---|---|---|---|---|
| 1777388080 | 27.22° C | 63% | 1019.2 hPa | 0 mm | - | 765 W/m² | - |
| 1777387776 | 26.67° C | 65% | 1019.3 hPa | 0 mm | - | 752 W/m² | - |
| 1777387473 | 27.22° C | 62% | 1019.3 hPa | 0 mm | - | 247 W/m² | - |
| 1777387168 | 27.78° C | 61% | 1019.5 hPa | 0 mm | - | 721 W/m² | - |
| 1777386863 | 27.78° C | 62% | 1019.3 hPa | 0 mm | - | 705 W/m² | - |
| 1777386561 | 27.22° C | 64% | 1019.6 hPa | 0 mm | - | 691 W/m² | - |
| 1777386257 | 26.11° C | 68% | 1019.5 hPa | 0 mm | - | 670 W/m² | - |
| 1777385955 | 25.56° C | 67% | 1019.5 hPa | 0 mm | - | 654 W/m² | - |
| 1777385651 | 26.11° C | 68% | 1019.5 hPa | 0 mm | - | 634 W/m² | - |
| 1777385349 | 25.56° C | 67% | 1019.6 hPa | 0 mm | - | 615 W/m² | - |
| 1777385045 | 25.56° C | 67% | 1019.7 hPa | 0 mm | - | 593 W/m² | - |
| 1777384742 | 26.11° C | 66% | 1019.8 hPa | 0 mm | - | 575 W/m² | - |
| 1777384441 | 25.56° C | 69% | 1019.5 hPa | 0 mm | - | 542 W/m² | - |
| 1777384137 | 25.56° C | 70% | 1019.9 hPa | 0 mm | - | 532 W/m² | - |
| 1777383834 | 25° C | 71% | 1019.7 hPa | 0 mm | - | 515 W/m² | - |
| 1777383530 | 25° C | 70% | 1019.7 hPa | 0 mm | - | 489 W/m² | - |
| 1777383226 | 24.44° C | 72% | 1019.6 hPa | 0 mm | - | 465 W/m² | - |
| 1777382924 | 23.89° C | 74% | 1019.7 hPa | 0 mm | - | 413 W/m² | - |
| 1777382619 | 23.33° C | 74% | 1019.8 hPa | 0 mm | - | 375 W/m² | - |
| 1777382315 | 23.33° C | 74% | 1019.8 hPa | 0 mm | - | 363 W/m² | - |
| 1777382012 | 23.89° C | 73% | 1019.7 hPa | 0 mm | - | 369 W/m² | - |
| 1777381712 | 23.33° C | 75% | 1019.8 hPa | 0 mm | - | 378 W/m² | - |
| 1777381407 | 22.78° C | 76% | 1019.8 hPa | 0 mm | - | 335 W/m² | - |
| 1777381104 | 22.22° C | 77% | 1019.6 hPa | 0 mm | - | 308 W/m² | - |
| 1777380801 | 22.22° C | 79% | 1019.7 hPa | 0 mm | - | 258 W/m² | - |
* Rain latest hour (hover to see other rain measurements)
** Current wind speed in m/s (hover to see current wind gust speed)